Tallahassee, FL (32312)

2:56 PM EDT on August 27, 2016 (GMT -0400)
| | Change Station

Elev -9999 ft 0.00 °N, 0.00 °E | Updated

Mostly Cloudy
Mostly Cloudy
91 °F
Feels Like 95 °F
N
6
Wind Variable Wind from ENE
Gusts mph

Today
High -- | Low -- °F
--% Chance of Precip.
Yesterday
High -- | Low -- °F
Precip. -- in
Pressure 29.99 in
Visibility 10.0 miles
Clouds Scattered Clouds 5000 ft
Mostly Cloudy 25000 ft
Heat Index 95 °F
Dew Point 68 °F
Humidity 46%
Rainfall --
Snow Depth Not available.
7:11 AM 8:05 PM
Waning Crescent, 22% visible
METAR KTLH 271853Z 05007KT 020V100 10SM SCT050 BKN250 33/19 A2999 RMK AO2 SLP155 T03330194
Pressure 29.99 in
Visibility 10.0 miles
Clouds Scattered Clouds 5000 ft
Mostly Cloudy 25000 ft
Heat Index 95 °F
Dew Point 68 °F
Humidity 46%
Rainfall --
Snow Depth Not available.
7:11 AM 8:05 PM
Waning Crescent, 22% visible
METAR KTLH 271853Z 05007KT 020V100 10SM SCT050 BKN250 33/19 A2999 RMK AO2 SLP155 T03330194

10-Day Weather Forecast

Almanac

Astronomy

Aug. 27, 2016 Rise Set
Actual Time
Civil Twilight
Nautical Twilight
Astronomical Twilight
Moon
Length of Visible Light
Length of Day
Tomorrow will be .
, % of the Moon is Illuminated

Today's Extremes

State Highs State Lows

Community

WunderPhotos

Upload Photos

1,935,399 photos uploaded!

WunderBlog® & News

Nearby

Air Quality

  Air Quality AQ Index Pollutant
Not available.

Snow Depth

Station Depth Elevation

Earthquake Activity

City Distance Mag. Time & Date
Minimum magnitude displayed is 2.5.

Coastal Water Temperatures

Place Temperature

Stations

Nearby Weather Stations

Station Location Temp. Windchill Dew Point Humidity Wind Precip. Elev Updated Type
                   

Watches & Warnings

There are currently no watches in effect.